createdAt,value
2023-05-19T00:00:56.770Z,14.09
2023-05-19T00:04:02.728Z,14.11
2023-05-19T00:07:08.388Z,14.02
2023-05-19T00:10:11.496Z,14.09
2023-05-19T00:13:13.999Z,13.98
2023-05-19T00:16:16.839Z,14.09
2023-05-19T00:19:19.270Z,14.06
2023-05-19T00:22:21.639Z,14.02
2023-05-19T00:25:24.010Z,14.06
2023-05-19T00:28:26.300Z,14.02
2023-05-19T00:31:28.739Z,13.95
2023-05-19T00:34:31.056Z,14.04
2023-05-19T00:37:33.319Z,14.08
2023-05-19T00:40:39.035Z,13.95
2023-05-19T00:43:41.340Z,13.92
2023-05-19T00:46:43.814Z,13.84
2023-05-19T00:49:46.126Z,13.92
2023-05-19T00:52:48.451Z,13.94
2023-05-19T00:55:50.841Z,14.02
2023-05-19T00:58:53.941Z,13.94
2023-05-19T01:01:56.250Z,13.92
2023-05-19T01:04:59.199Z,13.95
2023-05-19T01:08:01.945Z,13.95
2023-05-19T01:11:05.342Z,13.95
2023-05-19T01:14:07.741Z,13.97
2023-05-19T01:17:16.357Z,14.02
2023-05-19T01:20:39.313Z,14.06
2023-05-19T01:24:14.602Z,14.06
2023-05-19T01:27:42.843Z,13.97
2023-05-19T01:30:47.778Z,14.04
2023-05-19T01:33:58.119Z,13.98
2023-05-19T01:37:08.654Z,13.95
2023-05-19T01:40:11.478Z,13.89
2023-05-19T01:43:17.972Z,13.94
2023-05-19T01:46:21.500Z,14.01
2023-05-19T01:49:23.797Z,14.02
2023-05-19T01:52:26.090Z,13.92
2023-05-19T01:55:28.490Z,13.95
2023-05-19T01:58:33.772Z,14.01
2023-05-19T02:01:53.028Z,14.00
2023-05-19T02:05:03.793Z,13.98
2023-05-19T02:08:18.300Z,13.98
2023-05-19T02:11:31.554Z,13.91
2023-05-19T02:14:41.735Z,13.84
2023-05-19T02:17:50.792Z,13.85
2023-05-19T02:20:53.331Z,13.84
2023-05-19T02:23:55.732Z,13.85
2023-05-19T02:26:58.014Z,13.89
2023-05-19T02:30:00.326Z,13.88
2023-05-19T02:33:02.771Z,13.85
2023-05-19T02:36:06.463Z,13.84
2023-05-19T02:39:11.040Z,13.85
2023-05-19T02:42:14.845Z,13.84
2023-05-19T02:45:17.148Z,13.84
2023-05-19T02:48:19.389Z,13.86
2023-05-19T02:51:22.367Z,13.88
2023-05-19T02:54:24.724Z,13.91
2023-05-19T02:57:27.074Z,13.92
2023-05-19T03:00:29.336Z,13.94
2023-05-19T03:03:31.985Z,13.94
2023-05-19T03:06:34.430Z,13.89
2023-05-19T03:09:37.950Z,13.92
2023-05-19T03:12:40.650Z,13.95
2023-05-19T03:15:43.221Z,13.94
2023-05-19T03:18:46.342Z,13.94
2023-05-19T03:21:49.724Z,13.88
2023-05-19T03:24:58.752Z,13.86
2023-05-19T03:28:01.776Z,13.85
2023-05-19T03:31:04.112Z,13.86
2023-05-19T03:34:11.814Z,13.89
2023-05-19T03:37:14.308Z,13.84
2023-05-19T03:40:18.915Z,13.85
2023-05-19T03:43:21.617Z,13.81
2023-05-19T03:46:29.608Z,13.84
2023-05-19T03:49:43.751Z,13.84
2023-05-19T03:53:15.321Z,13.84
2023-05-19T03:56:18.357Z,13.89
2023-05-19T03:59:20.656Z,13.95
2023-05-19T04:02:23.031Z,13.85
2023-05-19T04:05:25.365Z,13.77
2023-05-19T04:08:29.319Z,13.78
2023-05-19T04:11:31.894Z,13.84
2023-05-19T04:14:34.203Z,13.95
2023-05-19T04:17:36.574Z,14.02
2023-05-19T04:20:38.873Z,14.06
2023-05-19T04:23:41.714Z,14.00
2023-05-19T04:26:46.232Z,14.11
2023-05-19T04:29:50.309Z,14.12
2023-05-19T04:32:52.663Z,14.21
2023-05-19T04:35:55.671Z,14.29
2023-05-19T04:39:02.547Z,14.30
2023-05-19T04:42:06.274Z,14.35
2023-05-19T04:45:09.878Z,14.45
2023-05-19T04:48:15.462Z,14.53
2023-05-19T04:51:17.787Z,14.50
2023-05-19T04:54:20.545Z,14.59
2023-05-19T04:57:23.039Z,14.57
2023-05-19T05:00:25.621Z,14.66
2023-05-19T05:03:34.632Z,14.60
2023-05-19T05:06:38.491Z,14.60
2023-05-19T05:09:41.898Z,14.56
2023-05-19T05:12:44.622Z,14.53
2023-05-19T05:15:47.357Z,14.53
2023-05-19T05:18:50.834Z,14.50
2023-05-19T05:21:53.585Z,14.60
2023-05-19T05:24:56.217Z,14.69
2023-05-19T05:27:59.159Z,14.79
2023-05-19T05:31:01.680Z,14.96
2023-05-19T05:34:04.965Z,15.01
2023-05-19T05:37:08.259Z,15.16
2023-05-19T05:40:11.800Z,15.25
2023-05-19T05:43:14.667Z,15.20
2023-05-19T05:46:22.738Z,15.08
2023-05-19T05:49:25.582Z,15.10
2023-05-19T05:52:30.417Z,15.23
2023-05-19T05:55:34.574Z,15.39
2023-05-19T05:58:37.938Z,15.63
2023-05-19T06:01:41.521Z,15.76
2023-05-19T06:04:45.180Z,15.88
2023-05-19T06:07:48.201Z,16.07
2023-05-19T06:10:55.921Z,16.12
2023-05-19T06:13:58.469Z,16.41
2023-05-19T06:17:35.527Z,16.54
2023-05-19T06:20:37.778Z,16.60
2023-05-19T06:23:41.186Z,16.77
2023-05-19T06:26:45.402Z,16.67
2023-05-19T06:29:47.720Z,16.70
2023-05-19T06:32:50.147Z,16.57
2023-05-19T06:35:52.619Z,16.84
2023-05-19T06:38:56.348Z,16.72
2023-05-19T06:41:59.052Z,16.72
2023-05-19T06:45:36.480Z,16.84
2023-05-19T06:48:40.374Z,16.95
2023-05-19T06:51:43.781Z,16.99
2023-05-19T06:54:46.272Z,17.26
2023-05-19T06:57:48.671Z,17.54
2023-05-19T07:00:52.241Z,17.23
2023-05-19T07:03:54.640Z,18.15
2023-05-19T07:06:56.946Z,18.86
2023-05-19T07:10:00.024Z,19.12
2023-05-19T07:13:07.162Z,19.47
2023-05-19T07:16:11.391Z,20.09
2023-05-19T07:19:14.617Z,20.74
2023-05-19T07:22:17.304Z,20.33
2023-05-19T07:25:20.171Z,20.02
2023-05-19T07:28:22.976Z,19.98
2023-05-19T07:31:25.286Z,20.01
2023-05-19T07:34:27.586Z,20.05
2023-05-19T07:37:29.998Z,20.37
2023-05-19T07:40:32.581Z,20.28
2023-05-19T07:43:35.037Z,20.49
2023-05-19T07:46:38.034Z,20.26
2023-05-19T07:49:40.578Z,20.01
2023-05-19T07:52:42.960Z,20.83
2023-05-19T07:55:45.267Z,21.65
2023-05-19T07:58:47.650Z,22.30
2023-05-19T08:01:50.013Z,22.68
2023-05-19T08:04:53.232Z,22.40
2023-05-19T08:07:57.544Z,22.99
2023-05-19T08:11:04.453Z,23.20
2023-05-19T08:14:06.835Z,23.56
2023-05-19T08:17:09.233Z,23.41
2023-05-19T08:20:14.856Z,23.60
2023-05-19T08:23:17.637Z,24.01
2023-05-19T08:26:19.942Z,24.27
2023-05-19T08:29:22.488Z,24.88
2023-05-19T08:32:25.002Z,24.79
2023-05-19T08:35:27.392Z,24.27
2023-05-19T08:38:29.692Z,25.12
2023-05-19T08:41:32.479Z,25.24
2023-05-19T08:44:34.963Z,24.61
2023-05-19T08:47:37.376Z,24.98
2023-05-19T08:50:44.313Z,25.05
2023-05-19T08:53:51.774Z,24.62
2023-05-19T08:56:54.376Z,25.41
2023-05-19T08:59:57.001Z,24.79
2023-05-19T09:03:16.998Z,23.81
2023-05-19T09:06:21.437Z,24.49
2023-05-19T09:09:23.861Z,25.40
2023-05-19T09:12:26.247Z,25.13
2023-05-19T09:15:28.715Z,24.52
2023-05-19T09:18:31.908Z,25.03
2023-05-19T09:21:34.272Z,25.29
2023-05-19T09:24:37.940Z,25.13
2023-05-19T09:27:40.252Z,26.04
2023-05-19T09:30:42.524Z,26.29
2023-05-19T09:33:46.020Z,26.17
2023-05-19T09:36:53.364Z,26.26
2023-05-19T09:39:56.058Z,26.72
2023-05-19T09:42:58.355Z,26.83
2023-05-19T09:46:04.835Z,25.95
2023-05-19T09:49:10.449Z,25.24
2023-05-19T09:52:16.452Z,24.13
2023-05-19T09:55:20.182Z,25.92
2023-05-19T09:58:22.658Z,26.69
2023-05-19T10:01:26.035Z,27.40
2023-05-19T10:04:29.723Z,26.08
2023-05-19T10:07:32.909Z,25.47
2023-05-19T10:10:35.299Z,25.66
2023-05-19T10:13:39.323Z,25.33
2023-05-19T10:16:41.950Z,24.75
2023-05-19T10:19:45.435Z,24.41
2023-05-19T10:22:48.863Z,25.56
2023-05-19T10:25:54.920Z,25.71
2023-05-19T10:28:58.350Z,26.69
2023-05-19T10:32:06.926Z,26.70
2023-05-19T10:35:09.428Z,26.38
2023-05-19T10:38:14.755Z,26.36
2023-05-19T10:41:47.043Z,27.38
2023-05-19T10:45:34.790Z,27.85
2023-05-19T10:48:37.515Z,27.47
2023-05-19T10:51:39.922Z,26.33
2023-05-19T10:54:46.314Z,26.01
2023-05-19T10:57:56.847Z,25.51
2023-05-19T11:01:02.162Z,26.19
2023-05-19T11:04:13.966Z,26.29
2023-05-19T11:07:21.891Z,25.85
2023-05-19T11:10:24.941Z,26.12
2023-05-19T11:16:32.665Z,27.57
2023-05-19T11:19:35.747Z,27.79
2023-05-19T11:22:39.956Z,26.97
2023-05-19T11:25:50.968Z,26.59
2023-05-19T11:28:53.738Z,25.98
2023-05-19T11:31:56.400Z,26.48
2023-05-19T11:34:59.082Z,26.39
2023-05-19T11:38:02.048Z,26.01
2023-05-19T11:41:04.586Z,25.22
2023-05-19T11:44:11.459Z,25.12
2023-05-19T11:47:17.315Z,25.27
2023-05-19T11:50:20.682Z,25.51
2023-05-19T11:53:23.332Z,25.02
2023-05-19T11:56:25.734Z,24.98
2023-05-19T11:59:36.194Z,25.22
2023-05-19T12:02:38.786Z,25.70
2023-05-19T12:05:45.722Z,25.63
2023-05-19T12:08:51.529Z,26.21
2023-05-19T12:11:55.322Z,26.50
2023-05-19T12:14:57.737Z,26.19
2023-05-19T12:18:07.604Z,26.19
2023-05-19T12:21:10.225Z,26.45
2023-05-19T12:24:12.824Z,26.25
2023-05-19T12:27:24.187Z,26.17
2023-05-19T12:30:29.094Z,25.82
2023-05-19T12:33:33.667Z,26.76
2023-05-19T12:36:38.385Z,27.54
2023-05-19T12:39:42.969Z,28.20
2023-05-19T12:42:45.933Z,27.27
2023-05-19T12:45:48.869Z,27.34
2023-05-19T12:48:51.796Z,26.89
2023-05-19T12:51:54.389Z,26.42
2023-05-19T12:55:07.438Z,25.58
2023-05-19T12:58:13.569Z,24.89
2023-05-19T13:01:17.716Z,24.73
2023-05-19T13:04:20.245Z,24.86
2023-05-19T13:07:22.555Z,24.80
2023-05-19T13:10:27.778Z,24.98
2023-05-19T13:13:30.100Z,25.36
2023-05-19T13:16:32.467Z,25.54
2023-05-19T13:19:34.854Z,26.83
2023-05-19T13:22:37.158Z,27.54
2023-05-19T13:25:40.344Z,27.82
2023-05-19T13:28:42.689Z,27.41
2023-05-19T13:31:45.092Z,27.24
2023-05-19T13:34:47.462Z,26.82
2023-05-19T13:37:50.141Z,26.83
2023-05-19T13:40:52.494Z,27.18
2023-05-19T13:43:55.365Z,28.02
2023-05-19T13:46:57.826Z,27.48
2023-05-19T13:50:00.308Z,27.18
2023-05-19T13:53:03.678Z,26.97
2023-05-19T13:56:06.238Z,26.83
2023-05-19T13:59:08.767Z,27.59
2023-05-19T14:02:11.364Z,28.59
2023-05-19T14:05:14.803Z,28.10
2023-05-19T14:08:17.415Z,27.45
2023-05-19T14:11:20.229Z,26.55
2023-05-19T14:14:22.923Z,26.45
2023-05-19T14:17:28.064Z,26.19
2023-05-19T14:20:31.772Z,26.12
2023-05-19T14:23:34.389Z,25.63
2023-05-19T14:26:36.740Z,25.97
2023-05-19T14:29:39.542Z,27.13
2023-05-19T14:32:41.846Z,27.82
2023-05-19T14:35:44.122Z,28.53
2023-05-19T14:38:46.548Z,28.19
2023-05-19T14:41:51.131Z,27.75
2023-05-19T14:44:53.497Z,27.26
2023-05-19T14:47:56.029Z,26.93
2023-05-19T14:50:58.347Z,26.46
2023-05-19T14:54:02.168Z,26.29
2023-05-19T14:57:04.617Z,25.70
2023-05-19T15:00:09.364Z,25.12
2023-05-19T15:03:11.903Z,23.50
2023-05-19T15:06:14.338Z,23.57
2023-05-19T15:09:16.605Z,23.98
2023-05-19T15:12:19.151Z,24.52
2023-05-19T15:15:21.500Z,24.59
2023-05-19T15:18:23.834Z,24.11
2023-05-19T15:21:26.108Z,23.74
2023-05-19T15:24:28.443Z,24.01
2023-05-19T15:27:30.824Z,24.00
2023-05-19T15:30:33.371Z,24.07
2023-05-19T15:33:36.238Z,23.42
2023-05-19T15:36:38.615Z,23.02
2023-05-19T15:39:41.104Z,22.84
2023-05-19T15:42:43.431Z,23.49
2023-05-19T15:45:46.167Z,23.59
2023-05-19T15:48:48.481Z,23.57
2023-05-19T15:51:50.769Z,23.90
2023-05-19T15:54:55.285Z,23.69
2023-05-19T15:57:57.634Z,23.38
2023-05-19T16:01:00.127Z,23.66
2023-05-19T16:04:03.913Z,23.71
2023-05-19T16:07:06.449Z,23.25
2023-05-19T16:10:09.344Z,22.90
2023-05-19T16:13:11.640Z,23.33
2023-05-19T16:16:13.904Z,23.43
2023-05-19T16:19:16.211Z,23.50
2023-05-19T16:22:18.501Z,23.39
2023-05-19T16:25:20.883Z,23.16
2023-05-19T16:28:24.864Z,23.02
2023-05-19T16:31:27.527Z,23.19
2023-05-19T16:34:30.638Z,23.20
2023-05-19T16:37:33.076Z,22.99
2023-05-19T16:40:35.645Z,23.02
2023-05-19T16:43:38.230Z,23.08
2023-05-19T16:46:40.955Z,22.91
2023-05-19T16:49:44.140Z,22.65
2023-05-19T16:52:46.547Z,22.64
2023-05-19T16:55:48.810Z,22.54
2023-05-19T16:58:51.104Z,22.39
2023-05-19T17:01:53.722Z,22.16
2023-05-19T17:04:56.040Z,22.14
2023-05-19T17:07:58.378Z,21.99
2023-05-19T17:11:00.692Z,22.16
2023-05-19T17:14:07.643Z,21.97
2023-05-19T17:17:10.142Z,22.10
2023-05-19T17:20:13.461Z,22.02
2023-05-19T17:23:16.068Z,21.72
2023-05-19T17:26:18.818Z,21.45
2023-05-19T17:29:21.219Z,21.55
2023-05-19T17:32:28.320Z,21.52
2023-05-19T17:35:30.735Z,21.17
2023-05-19T17:38:33.303Z,21.10
2023-05-19T17:41:35.798Z,20.97
2023-05-19T17:44:38.293Z,20.77
2023-05-19T17:47:40.630Z,20.62
2023-05-19T17:50:42.981Z,20.63
2023-05-19T17:53:45.574Z,20.56
2023-05-19T17:56:49.792Z,20.28
2023-05-19T17:59:52.466Z,20.04
2023-05-19T18:02:57.064Z,19.81
2023-05-19T18:05:59.508Z,19.60
2023-05-19T18:09:06.092Z,19.64
2023-05-19T18:12:08.374Z,19.67
2023-05-19T18:15:11.533Z,19.58
2023-05-19T18:18:13.972Z,19.53
2023-05-19T18:21:18.100Z,19.40
2023-05-19T18:24:20.580Z,19.34
2023-05-19T18:27:22.868Z,19.23
2023-05-19T18:30:25.227Z,19.14
2023-05-19T18:33:28.704Z,18.75
2023-05-19T18:36:33.056Z,18.85
2023-05-19T18:39:35.524Z,18.69
2023-05-19T18:42:37.883Z,18.66
2023-05-19T18:45:40.229Z,18.62
2023-05-19T18:48:42.579Z,18.59
2023-05-19T18:51:44.916Z,18.52
2023-05-19T18:54:47.692Z,18.40
2023-05-19T18:57:49.948Z,18.24
2023-05-19T19:00:55.673Z,18.20
2023-05-19T19:03:57.992Z,18.18
2023-05-19T19:07:00.281Z,18.20
2023-05-19T19:10:02.568Z,18.10
2023-05-19T19:13:07.695Z,18.17
2023-05-19T19:16:10.033Z,18.08
2023-05-19T19:19:12.487Z,17.89
2023-05-19T19:22:14.851Z,17.91
2023-05-19T19:25:17.216Z,17.71
2023-05-19T19:28:19.599Z,17.69
2023-05-19T19:31:22.634Z,17.79
2023-05-19T19:34:25.118Z,17.52
2023-05-19T19:37:27.435Z,17.53
2023-05-19T19:40:29.887Z,17.57
2023-05-19T19:43:32.212Z,17.62
2023-05-19T19:46:34.635Z,17.67
2023-05-19T19:49:36.942Z,17.70
2023-05-19T19:52:39.929Z,17.63
2023-05-19T19:55:43.111Z,17.36
2023-05-19T19:58:45.435Z,17.09
2023-05-19T20:01:47.719Z,16.91
2023-05-19T20:04:49.999Z,17.02
2023-05-19T20:07:52.281Z,17.16
2023-05-19T20:10:55.240Z,17.22
2023-05-19T20:13:57.546Z,17.16
2023-05-19T20:16:59.870Z,17.07
2023-05-19T20:20:08.066Z,16.82
2023-05-19T20:23:10.500Z,16.67
2023-05-19T20:26:13.637Z,16.63
2023-05-19T20:29:16.916Z,16.70
2023-05-19T20:32:19.327Z,16.63
2023-05-19T20:35:22.492Z,16.67
2023-05-19T20:38:24.769Z,16.63
2023-05-19T20:41:27.513Z,16.53
2023-05-19T20:44:29.802Z,16.56
2023-05-19T20:47:32.099Z,16.44
2023-05-19T20:50:34.623Z,16.40
2023-05-19T20:53:37.184Z,16.40
2023-05-19T20:56:39.483Z,16.37
2023-05-19T20:59:41.911Z,16.20
2023-05-19T21:02:44.442Z,16.13
2023-05-19T21:05:46.760Z,16.16
2023-05-19T21:08:49.002Z,16.03
2023-05-19T21:11:53.703Z,16.06
2023-05-19T21:14:55.951Z,15.95
2023-05-19T21:17:58.393Z,15.90
2023-05-19T21:21:04.223Z,15.89
2023-05-19T21:24:06.624Z,15.73
2023-05-19T21:27:08.936Z,15.66
2023-05-19T21:30:12.039Z,15.65
2023-05-19T21:33:14.396Z,15.48
2023-05-19T21:36:16.955Z,15.38
2023-05-19T21:39:19.247Z,15.27
2023-05-19T21:42:21.571Z,15.17
2023-05-19T21:45:23.839Z,15.20
2023-05-19T21:48:26.227Z,15.17
2023-05-19T21:51:29.229Z,14.96
2023-05-19T21:54:31.525Z,14.81
2023-05-19T21:57:33.788Z,14.96
2023-05-19T22:00:36.877Z,14.76
2023-05-19T22:03:39.462Z,14.84
2023-05-19T22:06:41.867Z,14.87
2023-05-19T22:09:44.160Z,14.87
2023-05-19T22:12:46.510Z,14.84
2023-05-19T22:15:48.853Z,14.86
2023-05-19T22:18:51.210Z,14.77
2023-05-19T22:22:01.883Z,14.75
2023-05-19T22:25:08.557Z,14.79
2023-05-19T22:28:10.817Z,14.73
2023-05-19T22:31:13.136Z,14.62
2023-05-19T22:34:15.669Z,14.73
2023-05-19T22:37:18.015Z,14.77
2023-05-19T22:40:20.478Z,14.73
2023-05-19T22:43:22.776Z,14.70
2023-05-19T22:46:25.101Z,14.57
2023-05-19T22:49:29.497Z,14.56
2023-05-19T22:52:31.804Z,14.42
2023-05-19T22:55:34.334Z,14.50
2023-05-19T22:58:42.982Z,14.43
2023-05-19T23:01:46.822Z,14.36
2023-05-19T23:04:49.296Z,14.30
2023-05-19T23:07:51.624Z,14.19
2023-05-19T23:10:53.979Z,13.89
2023-05-19T23:13:56.822Z,13.85
2023-05-19T23:16:59.376Z,13.86
2023-05-19T23:20:01.995Z,13.94
2023-05-19T23:23:07.337Z,13.88
2023-05-19T23:26:09.866Z,14.04
2023-05-19T23:29:13.219Z,14.01
2023-05-19T23:32:15.883Z,13.97
2023-05-19T23:35:18.584Z,13.95
2023-05-19T23:38:21.075Z,13.85
2023-05-19T23:41:23.377Z,13.77
2023-05-19T23:44:27.121Z,13.53
2023-05-19T23:47:29.402Z,13.39
2023-05-19T23:50:31.841Z,13.50
2023-05-19T23:53:34.162Z,13.44
2023-05-19T23:56:36.481Z,13.20
2023-05-19T23:59:38.788Z,13.13
